createdAt,value
2019-05-09T00:00:19.918Z,0.70
2019-05-09T00:02:47.574Z,1.00
2019-05-09T00:05:15.215Z,0.90
2019-05-09T00:07:43.966Z,0.80
2019-05-09T00:10:14.237Z,0.80
2019-05-09T00:12:43.732Z,0.80
2019-05-09T00:15:13.620Z,0.93
2019-05-09T00:17:43.828Z,0.80
2019-05-09T00:20:21.288Z,0.70
2019-05-09T00:22:48.941Z,1.07
2019-05-09T00:25:16.741Z,0.80
2019-05-09T00:27:44.521Z,1.00
2019-05-09T00:30:13.964Z,2.47
2019-05-09T00:32:43.248Z,0.80
2019-05-09T00:35:33.845Z,0.80
2019-05-09T00:38:04.293Z,0.80
2019-05-09T00:40:34.161Z,1.23
2019-05-09T00:43:03.677Z,0.90
2019-05-09T00:46:05.695Z,0.60
2019-05-09T00:48:55.861Z,1.00
2019-05-09T00:51:23.500Z,0.97
2019-05-09T00:53:53.473Z,0.80
2019-05-09T00:56:20.753Z,0.90
2019-05-09T00:58:48.581Z,0.83
2019-05-09T01:01:16.209Z,0.80
2019-05-09T01:03:43.829Z,0.73
2019-05-09T01:06:13.410Z,1.10
2019-05-09T01:08:41.246Z,0.97
2019-05-09T01:11:12.392Z,0.90
2019-05-09T01:13:38.469Z,1.03
2019-05-09T01:16:06.095Z,1.00
2019-05-09T01:18:34.360Z,1.00
2019-05-09T01:21:03.899Z,0.90
2019-05-09T01:23:34.029Z,0.87
2019-05-09T01:26:03.630Z,1.00
2019-05-09T01:28:30.987Z,0.90
2019-05-09T01:30:58.593Z,1.10
2019-05-09T01:33:44.433Z,0.97
2019-05-09T01:36:14.251Z,1.00
2019-05-09T01:38:43.298Z,0.90
2019-05-09T01:41:26.260Z,0.70
2019-05-09T01:43:40.617Z,1.27
2019-05-09T01:46:08.259Z,0.87
2019-05-09T01:48:35.904Z,0.90
2019-05-09T01:51:03.587Z,1.13
2019-05-09T01:53:34.325Z,1.10
2019-05-09T01:56:03.630Z,1.03
2019-05-09T01:58:34.169Z,1.00
2019-05-09T02:01:03.784Z,1.03
2019-05-09T02:03:33.509Z,1.00
2019-05-09T02:06:03.274Z,1.00
2019-05-09T02:08:30.634Z,0.90
2019-05-09T02:10:58.244Z,0.90
2019-05-09T02:13:25.944Z,0.80
2019-05-09T02:16:03.407Z,0.90
2019-05-09T02:18:50.722Z,0.97
2019-05-09T02:21:18.438Z,0.80
2019-05-09T02:23:46.059Z,0.80
2019-05-09T02:26:13.806Z,0.90
2019-05-09T02:28:43.265Z,0.90
2019-05-09T02:31:11.130Z,0.60
2019-05-09T02:33:38.748Z,0.70
2019-05-09T02:36:09.474Z,0.70
2019-05-09T02:38:38.951Z,0.87
2019-05-09T02:41:08.382Z,0.80
2019-05-09T02:43:38.659Z,0.80
2019-05-09T02:46:18.888Z,0.70
2019-05-09T02:48:49.523Z,0.70
2019-05-09T02:51:18.507Z,0.50
2019-05-09T02:53:48.547Z,0.53
2019-05-09T02:56:18.504Z,0.60
2019-05-09T02:58:58.993Z,0.70
2019-05-09T03:01:33.850Z,0.80
2019-05-09T03:04:01.472Z,0.60
2019-05-09T03:06:29.103Z,0.70
2019-05-09T03:08:59.426Z,0.80
2019-05-09T03:11:28.920Z,1.00
2019-05-09T03:13:58.547Z,0.80
2019-05-09T03:16:25.409Z,0.70
2019-05-09T03:18:53.038Z,0.60
2019-05-09T03:21:29.755Z,0.67
2019-05-09T03:23:59.174Z,0.90
2019-05-09T03:26:30.322Z,0.60
2019-05-09T03:29:13.138Z,0.60
2019-05-09T03:31:41.213Z,0.70
2019-05-09T03:34:09.599Z,0.73
2019-05-09T03:36:38.512Z,0.70
2019-05-09T03:39:08.163Z,0.50
2019-05-09T03:41:35.997Z,0.80
2019-05-09T03:44:03.823Z,0.70
2019-05-09T03:46:50.078Z,0.80
2019-05-09T03:49:18.172Z,0.80
2019-05-09T03:51:48.085Z,0.60
2019-05-09T03:54:15.369Z,0.60
2019-05-09T03:56:47.924Z,0.60
2019-05-09T03:59:17.627Z,0.70
2019-05-09T04:01:47.787Z,0.70
2019-05-09T04:04:14.770Z,0.63
2019-05-09T04:06:42.618Z,0.60
2019-05-09T04:09:10.251Z,0.60
2019-05-09T04:11:38.216Z,0.77
2019-05-09T04:14:11.925Z,0.77
2019-05-09T04:16:41.482Z,0.80
2019-05-09T04:19:27.696Z,0.70
2019-05-09T04:21:57.726Z,0.60
2019-05-09T04:24:27.955Z,0.80
2019-05-09T04:27:02.029Z,0.60
2019-05-09T04:29:29.645Z,0.40
2019-05-09T04:31:57.595Z,0.60
2019-05-09T04:34:27.413Z,0.70
2019-05-09T04:36:54.944Z,0.60
2019-05-09T04:39:23.870Z,0.70
2019-05-09T04:41:54.975Z,0.73
2019-05-09T04:44:37.492Z,0.50
2019-05-09T04:47:05.290Z,0.77
2019-05-09T04:49:39.316Z,0.90
2019-05-09T04:52:02.473Z,0.80
2019-05-09T04:54:30.142Z,0.73
2019-05-09T04:56:57.787Z,0.70
2019-05-09T04:59:25.421Z,0.60
2019-05-09T05:02:00.112Z,0.70
2019-05-09T05:04:28.318Z,0.80
2019-05-09T05:06:57.855Z,0.77
2019-05-09T05:09:27.608Z,0.70
2019-05-09T05:11:55.082Z,0.83
2019-05-09T05:14:22.835Z,0.60
2019-05-09T05:16:53.065Z,0.73
2019-05-09T05:19:21.554Z,0.90
2019-05-09T05:21:49.265Z,0.57
2019-05-09T05:24:38.185Z,0.77
2019-05-09T05:27:08.214Z,0.80
2019-05-09T05:29:35.545Z,0.70
2019-05-09T05:32:05.015Z,0.60
2019-05-09T05:34:40.582Z,0.80
2019-05-09T05:37:08.212Z,1.10
2019-05-09T05:39:37.521Z,0.80
2019-05-09T05:42:05.439Z,0.70
2019-05-09T05:44:33.069Z,0.70
2019-05-09T05:47:28.711Z,1.00
2019-05-09T05:49:57.697Z,0.90
2019-05-09T05:52:27.520Z,0.93
2019-05-09T05:54:54.772Z,1.00
2019-05-09T05:57:22.449Z,0.80
2019-05-09T05:59:50.265Z,0.80
2019-05-09T06:02:17.990Z,0.67
2019-05-09T06:04:45.762Z,0.70
2019-05-09T06:07:13.398Z,0.80
2019-05-09T06:09:41.073Z,0.80
2019-05-09T06:12:08.710Z,0.70
2019-05-09T06:14:37.864Z,0.80
2019-05-09T06:17:07.926Z,0.77
2019-05-09T06:19:37.644Z,0.50
2019-05-09T06:22:04.985Z,0.90
2019-05-09T06:24:32.628Z,0.87
2019-05-09T06:27:00.349Z,0.70
2019-05-09T06:29:28.733Z,0.87
2019-05-09T06:31:58.421Z,1.13
2019-05-09T06:34:27.727Z,0.80
2019-05-09T06:36:58.553Z,0.93
2019-05-09T06:39:25.130Z,0.97
2019-05-09T06:41:52.829Z,0.73
2019-05-09T06:44:47.984Z,0.90
2019-05-09T06:47:38.111Z,0.97
2019-05-09T06:50:08.162Z,1.03
2019-05-09T06:52:37.590Z,1.10
2019-05-09T06:55:05.689Z,0.90
2019-05-09T06:57:33.321Z,1.03
2019-05-09T07:00:01.169Z,0.83
2019-05-09T07:02:42.825Z,0.80
2019-05-09T07:05:29.246Z,0.90
2019-05-09T07:08:10.202Z,1.13
2019-05-09T07:10:37.892Z,0.90
2019-05-09T07:13:07.755Z,1.03
2019-05-09T07:15:35.145Z,0.90
2019-05-09T07:18:02.802Z,0.90
2019-05-09T07:20:30.489Z,1.10
2019-05-09T07:22:58.492Z,1.00
2019-05-09T07:25:34.053Z,1.10
2019-05-09T07:28:01.768Z,1.10
2019-05-09T07:30:50.883Z,0.93
2019-05-09T07:33:31.329Z,1.00
2019-05-09T07:35:58.986Z,0.90
2019-05-09T07:38:32.984Z,1.20
2019-05-09T07:41:00.818Z,1.10
2019-05-09T07:43:28.849Z,1.10
2019-05-09T07:46:11.310Z,1.30
2019-05-09T07:48:39.310Z,1.37
2019-05-09T07:51:07.869Z,1.20
2019-05-09T07:53:37.878Z,1.10
2019-05-09T07:56:07.698Z,1.33
2019-05-09T07:58:37.529Z,1.10
2019-05-09T08:01:08.215Z,1.27
2019-05-09T08:03:35.523Z,1.33
2019-05-09T08:06:03.244Z,1.47
2019-05-09T08:08:30.967Z,1.30
2019-05-09T08:10:58.675Z,1.20
2019-05-09T08:13:28.967Z,1.13
2019-05-09T08:15:58.353Z,1.40
2019-05-09T08:18:28.048Z,1.20
2019-05-09T08:20:57.116Z,1.20
2019-05-09T08:23:27.274Z,1.23
2019-05-09T08:25:54.537Z,1.00
2019-05-09T08:28:22.160Z,1.30
2019-05-09T08:30:49.805Z,1.10
2019-05-09T08:33:18.411Z,1.30
2019-05-09T08:35:52.083Z,1.20
2019-05-09T08:38:17.847Z,1.10
2019-05-09T08:40:45.247Z,1.20
2019-05-09T08:43:13.939Z,1.00
2019-05-09T08:45:41.709Z,1.20
2019-05-09T08:48:09.642Z,1.10
2019-05-09T08:50:50.289Z,1.00
2019-05-09T08:53:18.835Z,0.80
2019-05-09T08:55:47.484Z,0.80
2019-05-09T08:58:15.364Z,0.97
2019-05-09T09:00:42.985Z,0.60
2019-05-09T09:03:10.661Z,0.80
2019-05-09T09:05:38.400Z,1.00
2019-05-09T09:08:08.318Z,0.87
2019-05-09T09:10:38.353Z,1.00
2019-05-09T09:13:08.552Z,0.70
2019-05-09T09:16:02.801Z,0.90
2019-05-09T09:18:05.404Z,0.80
2019-05-09T09:20:33.153Z,0.80
2019-05-09T09:23:00.769Z,0.70
2019-05-09T09:25:28.814Z,0.70
2019-05-09T09:27:58.143Z,0.60
2019-05-09T09:30:28.922Z,0.60
2019-05-09T09:32:58.354Z,0.60
2019-05-09T09:35:27.618Z,0.77
2019-05-09T09:37:54.802Z,0.57
2019-05-09T09:40:22.468Z,0.60
2019-05-09T09:42:50.242Z,0.80
2019-05-09T09:45:18.465Z,0.60
2019-05-09T09:47:48.174Z,0.73
2019-05-09T09:50:17.751Z,0.60
2019-05-09T09:52:45.419Z,0.60
2019-05-09T09:55:13.441Z,0.80
2019-05-09T09:57:41.101Z,0.57
2019-05-09T10:00:34.080Z,0.70
2019-05-09T10:03:01.813Z,0.70
2019-05-09T10:05:29.494Z,0.80
2019-05-09T10:07:58.225Z,0.70
2019-05-09T10:10:34.585Z,0.90
2019-05-09T10:13:04.068Z,0.70
2019-05-09T10:15:38.430Z,0.63
2019-05-09T10:18:21.174Z,0.70
2019-05-09T10:20:53.401Z,0.73
2019-05-09T10:23:21.753Z,0.77
2019-05-09T10:25:49.493Z,0.53
2019-05-09T10:28:21.334Z,0.60
2019-05-09T10:30:48.529Z,0.63
2019-05-09T10:33:17.549Z,0.83
2019-05-09T10:35:47.758Z,0.73
2019-05-09T10:38:14.894Z,0.67
2019-05-09T10:40:42.596Z,0.93
2019-05-09T10:43:44.669Z,0.87
2019-05-09T10:46:51.454Z,0.83
2019-05-09T10:49:08.368Z,0.80
2019-05-09T10:51:35.574Z,0.87
2019-05-09T10:54:03.210Z,0.70
2019-05-09T10:56:30.814Z,0.90
2019-05-09T10:58:58.760Z,1.00
2019-05-09T11:01:29.185Z,1.03
2019-05-09T11:03:59.011Z,0.90
2019-05-09T11:06:28.674Z,0.90
2019-05-09T11:08:58.350Z,1.10
2019-05-09T11:11:28.154Z,0.80
2019-05-09T11:13:55.282Z,1.00
2019-05-09T11:16:22.962Z,1.07
2019-05-09T11:18:50.570Z,1.03
2019-05-09T11:21:19.609Z,1.63
2019-05-09T11:23:48.739Z,1.20
2019-05-09T11:26:17.931Z,1.07
2019-05-09T11:28:45.838Z,1.10
2019-05-09T11:31:13.710Z,0.87
2019-05-09T11:33:41.543Z,0.80
2019-05-09T11:36:09.901Z,0.80
2019-05-09T11:38:43.474Z,0.70
2019-05-09T11:41:08.315Z,1.20
2019-05-09T11:43:38.793Z,1.10
2019-05-09T11:46:10.226Z,0.90
2019-05-09T11:48:38.014Z,0.90
2019-05-09T11:51:04.755Z,0.80
2019-05-09T11:53:32.445Z,0.90
2019-05-09T11:56:00.134Z,0.70
2019-05-09T11:58:28.090Z,0.70
2019-05-09T12:00:55.796Z,1.03
2019-05-09T12:03:23.665Z,1.10
2019-05-09T12:05:51.412Z,0.70
2019-05-09T12:08:21.365Z,0.83
2019-05-09T12:10:50.908Z,0.97
2019-05-09T12:13:18.740Z,0.80
2019-05-09T12:15:48.929Z,0.97
2019-05-09T12:18:16.034Z,0.87
2019-05-09T12:20:43.685Z,0.90
2019-05-09T12:23:11.411Z,0.60
2019-05-09T12:25:39.069Z,0.80
2019-05-09T12:28:07.830Z,0.93
2019-05-09T12:30:37.839Z,1.00
2019-05-09T12:33:05.225Z,0.60
2019-05-09T12:35:32.902Z,0.83
2019-05-09T12:38:00.574Z,1.10
2019-05-09T12:40:28.262Z,0.90
2019-05-09T12:42:55.972Z,0.77
2019-05-09T12:45:23.686Z,0.80
2019-05-09T12:48:06.084Z,0.90
2019-05-09T12:50:20.877Z,1.03
2019-05-09T12:52:48.854Z,0.90
2019-05-09T12:55:17.866Z,1.17
2019-05-09T12:57:45.707Z,0.77
2019-05-09T13:00:15.165Z,1.20
2019-05-09T13:02:42.863Z,1.40
2019-05-09T13:05:10.497Z,1.23
2019-05-09T13:07:42.010Z,0.80
2019-05-09T13:10:08.940Z,1.00
2019-05-09T13:12:38.801Z,1.20
2019-05-09T13:15:08.718Z,1.10
2019-05-09T13:17:38.524Z,1.13
2019-05-09T13:20:08.036Z,1.00
2019-05-09T13:22:36.791Z,0.90
2019-05-09T13:25:04.690Z,1.00
2019-05-09T13:27:32.457Z,1.27
2019-05-09T13:30:00.087Z,0.97
2019-05-09T13:32:28.096Z,0.70
2019-05-09T13:34:57.796Z,0.80
2019-05-09T13:37:29.376Z,0.90
2019-05-09T13:39:55.044Z,0.77
2019-05-09T13:42:22.684Z,0.60
2019-05-09T13:44:50.332Z,0.70
2019-05-09T13:47:19.014Z,0.70
2019-05-09T13:49:48.434Z,0.80
2019-05-09T13:52:17.961Z,0.90
2019-05-09T13:54:48.030Z,1.00
2019-05-09T13:57:15.414Z,0.70
2019-05-09T13:59:43.177Z,1.00
2019-05-09T14:02:10.883Z,1.10
2019-05-09T14:04:39.457Z,0.70
2019-05-09T14:07:08.371Z,0.80
2019-05-09T14:09:38.355Z,0.63
2019-05-09T14:12:05.710Z,0.90
2019-05-09T14:14:33.383Z,0.80
2019-05-09T14:17:01.039Z,0.67
2019-05-09T14:19:39.946Z,0.80
2019-05-09T14:21:58.756Z,0.60
2019-05-09T14:24:27.931Z,0.80
2019-05-09T14:26:58.271Z,0.83
2019-05-09T14:29:30.886Z,0.90
2019-05-09T14:31:55.553Z,0.93
2019-05-09T14:34:23.204Z,1.00
2019-05-09T14:36:50.837Z,0.77
2019-05-09T14:39:18.958Z,1.00
2019-05-09T14:41:47.249Z,1.00
2019-05-09T14:44:14.982Z,0.97
2019-05-09T14:46:43.059Z,1.00
2019-05-09T14:49:10.751Z,0.90
2019-05-09T14:51:38.416Z,1.00
2019-05-09T14:54:08.384Z,1.00
2019-05-09T14:56:41.129Z,1.00
2019-05-09T14:59:05.817Z,1.30
2019-05-09T15:01:33.597Z,1.00
2019-05-09T15:04:01.231Z,0.93
2019-05-09T15:06:28.860Z,0.90
2019-05-09T15:08:58.105Z,1.03
2019-05-09T15:11:28.217Z,0.97
2019-05-09T15:13:55.676Z,0.90
2019-05-09T15:16:23.357Z,1.20
2019-05-09T15:18:51.038Z,1.00
2019-05-09T15:21:19.193Z,0.90
2019-05-09T15:23:48.143Z,1.17
2019-05-09T15:26:17.673Z,1.10
2019-05-09T15:28:45.538Z,0.90
2019-05-09T15:31:13.199Z,1.23
2019-05-09T15:33:40.839Z,0.97
2019-05-09T15:36:09.174Z,1.20
2019-05-09T15:38:37.951Z,1.70
2019-05-09T15:41:12.008Z,1.30
2019-05-09T15:43:35.379Z,1.20
2019-05-09T15:46:14.963Z,1.07
2019-05-09T15:48:42.641Z,1.23
2019-05-09T15:51:10.321Z,1.20
2019-05-09T15:53:38.163Z,1.30
2019-05-09T15:56:07.888Z,1.20
2019-05-09T15:58:37.908Z,1.20
2019-05-09T16:01:08.237Z,0.97
2019-05-09T16:03:38.077Z,1.20
2019-05-09T16:06:08.881Z,1.00
2019-05-09T16:08:38.136Z,1.00
2019-05-09T16:11:05.537Z,1.23
2019-05-09T16:13:33.218Z,0.90
2019-05-09T16:16:00.897Z,1.40
2019-05-09T16:18:28.920Z,1.10
2019-05-09T16:20:58.098Z,1.27
2019-05-09T16:23:28.876Z,1.07
2019-05-09T16:25:55.573Z,1.17
2019-05-09T16:28:23.245Z,1.07
2019-05-09T16:30:50.873Z,1.00
2019-05-09T16:33:18.538Z,0.93
2019-05-09T16:35:48.318Z,1.10
2019-05-09T16:38:15.825Z,1.17
2019-05-09T16:40:43.607Z,1.00
2019-05-09T16:43:11.238Z,1.20
2019-05-09T16:45:38.882Z,1.03
2019-05-09T16:48:11.073Z,0.93
2019-05-09T16:50:40.155Z,0.80
2019-05-09T16:53:08.669Z,1.00
2019-05-09T16:55:38.121Z,1.00
2019-05-09T16:58:08.475Z,1.10
2019-05-09T17:00:44.258Z,1.03
2019-05-09T17:03:12.021Z,1.10
2019-05-09T17:05:39.819Z,1.33
2019-05-09T17:08:08.204Z,1.50
2019-05-09T17:10:36.127Z,1.20
2019-05-09T17:13:04.002Z,1.40
2019-05-09T17:15:31.755Z,1.00
2019-05-09T17:17:59.469Z,1.00
2019-05-09T17:20:52.489Z,1.50
2019-05-09T17:23:21.548Z,1.13
2019-05-09T17:25:49.485Z,1.50
2019-05-09T17:28:17.857Z,1.50
2019-05-09T17:30:45.672Z,1.40
2019-05-09T17:33:14.329Z,1.60
2019-05-09T17:35:42.013Z,2.00
2019-05-09T17:38:09.633Z,2.00
2019-05-09T17:40:38.976Z,1.70
2019-05-09T17:43:08.255Z,1.50
2019-05-09T17:45:39.525Z,1.33
2019-05-09T17:48:08.414Z,1.10
2019-05-09T17:50:38.090Z,1.40
2019-05-09T17:53:05.232Z,1.40
2019-05-09T17:55:32.892Z,1.40
2019-05-09T17:58:00.595Z,1.27
2019-05-09T18:00:29.043Z,1.20
2019-05-09T18:02:57.961Z,1.30
2019-05-09T18:05:25.914Z,1.30
2019-05-09T18:07:53.619Z,1.43
2019-05-09T18:10:21.371Z,1.33
2019-05-09T18:12:49.058Z,1.60
2019-05-09T18:15:18.671Z,1.83
2019-05-09T18:17:47.919Z,1.60
2019-05-09T18:20:17.729Z,1.30
2019-05-09T18:22:47.732Z,1.57
2019-05-09T18:25:15.252Z,1.30
2019-05-09T18:27:42.989Z,1.37
2019-05-09T18:30:11.049Z,1.47
2019-05-09T18:32:43.573Z,1.23
2019-05-09T18:35:16.489Z,1.47
2019-05-09T18:37:44.155Z,1.30
2019-05-09T18:40:12.214Z,1.53
2019-05-09T18:42:39.861Z,1.50
2019-05-09T18:45:10.046Z,1.50
2019-05-09T18:47:37.825Z,1.07
2019-05-09T18:50:06.562Z,1.33
2019-05-09T18:52:34.233Z,1.30
2019-05-09T18:55:03.206Z,1.10
2019-05-09T18:57:30.832Z,1.23
2019-05-09T18:59:58.491Z,1.10
2019-05-09T19:02:26.129Z,1.00
2019-05-09T19:04:53.868Z,1.00
2019-05-09T19:07:22.868Z,1.50
2019-05-09T19:09:50.868Z,1.27
2019-05-09T19:12:18.517Z,1.30
2019-05-09T19:14:46.991Z,1.30
2019-05-09T19:17:39.934Z,1.20
2019-05-09T19:20:17.255Z,1.27
2019-05-09T19:22:44.981Z,1.40
2019-05-09T19:25:12.833Z,1.40
2019-05-09T19:27:40.740Z,1.33
2019-05-09T19:30:08.482Z,1.50
2019-05-09T19:32:36.171Z,1.27
2019-05-09T19:35:03.884Z,1.50
2019-05-09T19:37:31.653Z,1.80
2019-05-09T19:39:59.393Z,1.70
2019-05-09T19:42:27.153Z,2.07
2019-05-09T19:44:54.848Z,2.70
2019-05-09T19:47:22.563Z,2.57
2019-05-09T19:49:50.206Z,2.63
2019-05-09T19:52:17.913Z,2.40
2019-05-09T19:54:45.558Z,2.17
2019-05-09T19:57:13.234Z,1.60
2019-05-09T19:59:40.915Z,1.60
2019-05-09T20:02:08.630Z,1.77
2019-05-09T20:04:36.305Z,1.53
2019-05-09T20:07:03.933Z,1.80
2019-05-09T20:09:41.311Z,1.40
2019-05-09T20:12:31.659Z,1.70
2019-05-09T20:14:59.546Z,1.50
2019-05-09T20:17:27.258Z,1.20
2019-05-09T20:19:55.321Z,1.10
2019-05-09T20:22:25.241Z,1.23
2019-05-09T20:24:53.047Z,1.53
2019-05-09T20:27:20.804Z,1.20
2019-05-09T20:29:48.659Z,1.10
2019-05-09T20:32:16.444Z,1.17
2019-05-09T20:34:44.101Z,1.60
2019-05-09T20:37:11.842Z,1.30
2019-05-09T20:39:39.541Z,1.20
2019-05-09T20:42:07.292Z,1.30
2019-05-09T20:44:34.974Z,1.40
2019-05-09T20:47:02.714Z,1.60
2019-05-09T20:49:30.388Z,1.57
2019-05-09T20:51:58.058Z,1.20
2019-05-09T20:54:25.741Z,1.47
2019-05-09T20:56:53.421Z,1.00
2019-05-09T20:59:21.107Z,1.23
2019-05-09T21:01:48.958Z,1.67
2019-05-09T21:04:16.689Z,1.43
2019-05-09T21:06:44.366Z,1.33
2019-05-09T21:09:12.129Z,1.57
2019-05-09T21:11:39.830Z,1.50
2019-05-09T21:14:07.481Z,1.40
2019-05-09T21:16:35.173Z,1.27
2019-05-09T21:19:02.949Z,1.57
2019-05-09T21:21:30.733Z,1.60
2019-05-09T21:23:59.517Z,1.40
2019-05-09T21:26:27.180Z,1.43
2019-05-09T21:28:54.850Z,1.53
2019-05-09T21:31:22.497Z,1.73
2019-05-09T21:33:50.142Z,1.60
2019-05-09T21:36:17.826Z,1.53
2019-05-09T21:38:45.440Z,1.50
2019-05-09T21:41:13.090Z,1.60
2019-05-09T21:43:40.842Z,1.40
2019-05-09T21:46:08.602Z,1.53
2019-05-09T21:48:38.493Z,1.47
2019-05-09T21:51:05.913Z,1.60
2019-05-09T21:53:41.118Z,1.60
2019-05-09T21:56:03.323Z,1.83
2019-05-09T21:58:30.966Z,1.53
2019-05-09T22:00:59.505Z,1.50
2019-05-09T22:03:27.344Z,1.77
2019-05-09T22:05:54.981Z,1.30
2019-05-09T22:08:22.660Z,1.60
2019-05-09T22:10:50.297Z,1.40
2019-05-09T22:13:18.067Z,1.73
2019-05-09T22:15:45.723Z,1.80
2019-05-09T22:18:13.385Z,1.40
2019-05-09T22:20:41.022Z,1.60
2019-05-09T22:23:08.733Z,1.30
2019-05-09T22:25:36.353Z,1.70
2019-05-09T22:28:04.079Z,1.43
2019-05-09T22:30:31.693Z,1.40
2019-05-09T22:32:59.333Z,1.40
2019-05-09T22:35:26.974Z,1.37
2019-05-09T22:37:54.628Z,1.23
2019-05-09T22:40:22.245Z,1.27
2019-05-09T22:42:49.889Z,1.40
2019-05-09T22:45:18.310Z,1.33
2019-05-09T22:47:45.961Z,1.53
2019-05-09T22:50:13.765Z,1.30
2019-05-09T22:52:41.421Z,1.40
2019-05-09T22:55:09.393Z,1.47
2019-05-09T22:57:37.038Z,1.30
2019-05-09T23:00:05.507Z,1.40
2019-05-09T23:02:35.133Z,1.50
2019-05-09T23:05:02.976Z,1.57
2019-05-09T23:07:30.714Z,1.60
2019-05-09T23:09:58.369Z,1.47
2019-05-09T23:12:25.997Z,1.60
2019-05-09T23:14:53.659Z,1.50
2019-05-09T23:17:21.296Z,1.60
2019-05-09T23:19:49.337Z,1.20
2019-05-09T23:22:17.334Z,1.60
2019-05-09T23:24:45.003Z,1.40
2019-05-09T23:27:15.289Z,1.40
2019-05-09T23:29:42.952Z,1.37
2019-05-09T23:32:30.722Z,1.83
2019-05-09T23:34:59.446Z,1.63
2019-05-09T23:37:27.133Z,1.50
2019-05-09T23:39:54.778Z,1.50
2019-05-09T23:42:22.424Z,1.57
2019-05-09T23:44:51.052Z,1.50
2019-05-09T23:47:18.697Z,1.40
2019-05-09T23:49:47.335Z,1.50
2019-05-09T23:52:14.975Z,1.60
2019-05-09T23:55:01.937Z,1.67
2019-05-09T23:57:47.598Z,1.40
